Time;durP1;ratioP1;P1;durP2;ratioP2;P2;SDS_P1;SDS_P2;PMS_P1;PMS_P2;Temp;Humidity;BMP_temperature;BMP_pressure;BME280_temperature;BME280_humidity;BME280_pressure;Samples;Min_cycle;Max_cycle;Signal;HPM_P1;HPM_P2
2021/10/02 00:49:05;;;;;;;6.50;6.00;;;15.80;99.90;;;;;;10563925;28;20219;-82
2021/10/02 00:54:08;;;;;;;6.60;6.10;;;15.80;99.90;;;;;;10565123;28;20215;-83
2021/10/02 00:59:10;;;;;;;7.43;6.77;;;15.80;99.90;;;;;;10566246;28;20196;-83
2021/10/02 01:04:19;;;;;;;6.60;6.07;;;15.80;99.90;;;;;;10539723;28;20216;-82
2021/10/02 01:09:39;;;;;;;6.77;6.20;;;15.80;99.90;;;;;;10486308;28;20680;-83
2021/10/02 01:14:47;;;;;;;10.20;6.60;;;15.80;99.90;;;;;;10499962;28;20216;-82
2021/10/02 01:20:04;;;;;;;6.83;6.17;;;15.70;99.90;;;;;;10500464;28;20189;-82
2021/10/02 01:25:24;;;;;;;6.80;6.30;;;15.70;99.90;;;;;;10482407;28;20208;-82
2021/10/02 01:30:50;;;;;;;6.27;5.77;;;15.70;99.90;;;;;;10498821;28;20295;-83
2021/10/02 01:36:00;;;;;;;8.07;6.90;;;15.70;99.90;;;;;;10506295;28;20228;-82
2021/10/02 01:51:48;;;;;;;6.40;5.90;;;15.80;99.90;;;;;;10525090;28;20184;-83
2021/10/02 01:56:52;;;;;;;7.20;6.60;;;15.80;99.90;;;;;;10540850;28;20200;-82
2021/10/02 02:01:56;;;;;;;7.93;6.53;;;15.80;99.90;;;;;;10539092;28;20718;-82
2021/10/02 02:07:00;;;;;;;7.37;6.83;;;15.80;99.90;;;;;;10506155;28;20217;-82
2021/10/02 02:12:03;;;;;;;7.03;6.33;;;15.80;99.90;;;;;;10479214;28;20246;-82
2021/10/02 02:17:08;;;;;;;6.73;6.03;;;15.80;99.90;;;;;;10496330;28;20184;-82
2021/10/02 02:22:10;;;;;;;7.10;6.60;;;15.80;99.90;;;;;;10479868;28;20201;-82
2021/10/02 02:27:12;;;;;;;6.83;6.23;;;15.80;99.90;;;;;;10479447;28;20209;-83
2021/10/02 02:32:17;;;;;;;7.43;6.73;;;15.80;99.90;;;;;;10495668;28;20681;-82
2021/10/02 02:37:19;;;;;;;7.10;6.50;;;15.80;99.90;;;;;;10495960;28;20220;-82
2021/10/02 02:42:21;;;;;;;8.10;7.23;;;15.80;99.90;;;;;;10495962;28;20220;-82
2021/10/02 02:47:29;;;;;;;7.67;6.77;;;15.80;99.90;;;;;;10495582;28;20228;-82
2021/10/02 02:52:37;;;;;;;6.90;6.30;;;15.80;99.90;;;;;;10495359;28;20280;-83
2021/10/02 02:57:43;;;;;;;6.93;6.43;;;15.80;99.90;;;;;;10495575;28;20625;-82
2021/10/02 03:02:51;;;;;;;7.57;6.93;;;15.90;99.90;;;;;;10495067;28;20212;-82
2021/10/02 03:07:56;;;;;;;7.70;7.10;;;15.80;99.90;;;;;;10479443;28;20208;-83
2021/10/02 03:13:03;;;;;;;7.00;6.40;;;15.80;99.90;;;;;;10479188;28;20278;-82
2021/10/02 03:18:09;;;;;;;7.57;6.97;;;15.80;99.90;;;;;;10478810;28;20201;-82
2021/10/02 03:23:11;;;;;;;7.33;6.73;;;15.70;99.90;;;;;;10496658;28;20222;-83
2021/10/02 03:28:14;;;;;;;7.13;6.43;;;15.70;99.90;;;;;;10495168;28;20208;-82
2021/10/02 03:33:18;;;;;;;7.70;7.10;;;15.70;99.90;;;;;;10480090;28;20638;-82
2021/10/02 03:38:20;;;;;;;7.80;7.20;;;15.70;99.90;;;;;;10537131;28;20191;-82
2021/10/02 03:43:22;;;;;;;7.60;6.90;;;15.70;99.90;;;;;;10536885;28;20212;-83
2021/10/02 03:48:26;;;;;;;7.40;6.80;;;15.70;99.90;;;;;;10520092;28;20215;-82
2021/10/02 03:53:29;;;;;;;7.77;7.13;;;15.70;99.90;;;;;;10537891;28;20210;-83
2021/10/02 03:58:32;;;;;;;7.03;6.53;;;15.70;99.90;;;;;;10519637;28;20200;-83
2021/10/02 04:03:35;;;;;;;7.90;7.10;;;15.70;99.90;;;;;;10535945;28;20242;-83
2021/10/02 04:08:37;;;;;;;8.70;7.90;;;15.70;99.90;;;;;;10511334;28;20204;-82
2021/10/02 04:13:40;;;;;;;7.27;6.67;;;15.70;99.90;;;;;;10535385;28;20576;-83
2021/10/02 04:18:44;;;;;;;7.50;6.90;;;15.70;99.90;;;;;;10535767;28;20537;-82
2021/10/02 04:23:46;;;;;;;7.00;6.40;;;15.70;99.90;;;;;;10534765;28;20576;-82
2021/10/02 04:28:48;;;;;;;6.97;6.47;;;15.60;99.90;;;;;;10518261;28;20211;-82
2021/10/02 04:33:52;;;;;;;8.30;7.20;;;15.60;99.90;;;;;;10537901;28;20224;-82
2021/10/02 04:38:54;;;;;;;7.93;7.33;;;15.60;99.90;;;;;;10542344;28;20188;-82
2021/10/02 04:43:56;;;;;;;16.37;13.83;;;15.60;99.90;;;;;;10542139;28;20211;-82
2021/10/02 04:49:00;;;;;;;19.90;17.10;;;15.60;99.90;;;;;;10542937;28;20212;-82
2021/10/02 04:54:02;;;;;;;16.47;14.87;;;15.60;99.90;;;;;;10541654;28;20218;-82
2021/10/02 04:59:04;;;;;;;19.17;17.17;;;15.50;99.90;;;;;;10524744;28;20199;-82
2021/10/02 05:04:08;;;;;;;19.53;17.60;;;15.50;99.90;;;;;;10541305;28;20330;-82
2021/10/02 05:09:10;;;;;;;31.67;28.43;;;15.50;99.90;;;;;;10541482;28;20212;-83
2021/10/02 05:14:12;;;;;;;26.73;23.93;;;15.50;99.90;;;;;;10524129;28;20212;-82
2021/10/02 05:19:15;;;;;;;23.70;21.50;;;15.50;99.90;;;;;;10507849;28;20639;-83
2021/10/02 05:24:17;;;;;;;14.23;12.93;;;15.50;99.90;;;;;;10527483;28;20220;-82
2021/10/02 05:29:19;;;;;;;10.50;9.60;;;15.50;99.90;;;;;;10498598;28;20208;-82
2021/10/02 05:34:23;;;;;;;8.67;7.97;;;15.50;99.90;;;;;;10510736;28;20228;-84
2021/10/02 05:39:25;;;;;;;7.93;7.20;;;15.50;99.90;;;;;;10522985;28;20217;-83
2021/10/02 05:44:28;;;;;;;9.03;8.27;;;15.50;99.90;;;;;;10518884;28;20230;-84
2021/10/02 05:49:31;;;;;;;6.80;6.30;;;15.50;99.90;;;;;;10519658;28;20239;-83
2021/10/02 05:54:33;;;;;;;8.40;7.70;;;15.50;99.90;;;;;;10528626;28;20223;-83
2021/10/02 05:59:35;;;;;;;9.30;8.07;;;15.50;99.90;;;;;;10518511;28;20200;-83
2021/10/02 06:04:39;;;;;;;10.40;9.40;;;15.60;99.90;;;;;;10537030;28;20223;-83
2021/10/02 06:09:41;;;;;;;9.07;8.27;;;15.70;99.90;;;;;;10495699;28;20216;-84
2021/10/02 06:14:43;;;;;;;10.50;9.50;;;15.80;99.90;;;;;;10529125;28;20272;-83
2021/10/02 06:19:47;;;;;;;10.80;9.70;;;15.90;99.90;;;;;;10537233;28;20237;-83
2021/10/02 07:22:47;;;;;;;12.83;9.50;;;16.20;99.90;;;;;;10453115;23;20372;-84
2021/10/02 07:27:49;;;;;;;9.40;8.60;;;16.30;99.90;;;;;;10253167;29;20238;-84
2021/10/02 07:32:51;;;;;;;9.77;8.87;;;16.40;99.90;;;;;;10215969;28;20296;-84
2021/10/02 07:37:55;;;;;;;9.93;8.97;;;16.50;99.90;;;;;;10216948;29;20204;-85
2021/10/02 07:43:02;;;;;;;9.73;8.93;;;16.50;99.90;;;;;;10217858;29;20280;-84
2021/10/02 07:48:05;;;;;;;8.67;7.90;;;16.40;99.90;;;;;;10216428;28;20230;-84
2021/10/02 07:53:09;;;;;;;8.53;7.73;;;16.40;99.90;;;;;;10217991;29;20598;-84
2021/10/02 07:58:11;;;;;;;9.33;8.47;;;16.40;99.90;;;;;;10218632;28;20225;-83
2021/10/02 08:03:14;;;;;;;9.70;8.70;;;16.50;99.90;;;;;;10256698;28;20219;-84
2021/10/02 08:08:20;;;;;;;8.90;8.00;;;16.50;99.90;;;;;;10244102;28;20287;-83
2021/10/02 08:13:22;;;;;;;9.23;8.40;;;16.50;99.90;;;;;;10225301;28;20307;-84
2021/10/02 08:18:26;;;;;;;12.10;7.80;;;16.60;99.90;;;;;;10225589;28;20571;-84
2021/10/02 08:23:33;;;;;;;7.77;7.07;;;16.60;99.90;;;;;;10224631;28;20264;-84
2021/10/02 08:28:35;;;;;;;8.30;7.60;;;16.70;99.90;;;;;;10223091;28;20327;-84
2021/10/02 08:33:38;;;;;;;9.07;8.07;;;16.70;99.90;;;;;;10225443;28;20232;-84
2021/10/02 08:38:41;;;;;;;7.10;6.50;;;16.70;99.90;;;;;;10241503;29;20212;-84
2021/10/02 08:43:48;;;;;;;8.40;7.60;;;16.80;99.90;;;;;;10225585;29;20229;-84
2021/10/02 08:49:10;;;;;;;6.90;6.20;;;16.80;99.90;;;;;;10226145;28;20605;-83
2021/10/02 08:54:14;;;;;;;4.10;3.80;;;16.90;99.90;;;;;;10223822;29;20225;-84
2021/10/02 08:59:17;;;;;;;3.90;3.60;;;17.00;99.90;;;;;;10241140;28;20559;-84
2021/10/02 09:04:19;;;;;;;4.27;3.80;;;17.10;99.90;;;;;;10224331;28;20232;-84
2021/10/02 09:09:23;;;;;;;5.87;5.47;;;17.10;99.90;;;;;;10239447;28;20259;-84
2021/10/02 09:14:25;;;;;;;3.60;3.40;;;17.20;99.90;;;;;;10223943;29;20232;-84
2021/10/02 09:19:28;;;;;;;3.93;3.63;;;17.30;99.90;;;;;;10223002;28;20209;-84
2021/10/02 09:24:33;;;;;;;3.63;3.43;;;17.40;99.90;;;;;;10223580;29;20221;-84
2021/10/02 09:29:39;;;;;;;5.50;2.97;;;17.50;99.90;;;;;;10239577;28;20240;-85
2021/10/02 09:34:47;;;;;;;4.30;3.97;;;17.60;99.90;;;;;;10204942;29;20311;-84
2021/10/02 09:39:52;;;;;;;3.30;3.00;;;17.80;99.90;;;;;;10211775;28;20200;-84
2021/10/02 09:44:58;;;;;;;3.47;3.27;;;18.00;99.90;;;;;;10274105;28;20216;-84
2021/10/02 09:50:00;;;;;;;3.20;3.00;;;18.10;99.90;;;;;;10264717;28;20269;-85
2021/10/02 09:55:16;;;;;;;3.93;3.60;;;18.20;99.90;;;;;;10238326;28;20247;-84
2021/10/02 10:00:21;;;;;;;4.47;4.07;;;18.20;99.90;;;;;;10220400;29;20717;-84
2021/10/02 10:05:28;;;;;;;7.27;6.67;;;18.30;99.90;;;;;;10221907;29;20644;-84
2021/10/02 10:10:33;;;;;;;5.10;4.70;;;18.20;99.90;;;;;;10222064;29;20220;-84
2021/10/02 10:15:39;;;;;;;4.60;4.20;;;18.20;99.90;;;;;;10213862;29;20229;-85
2021/10/02 10:20:48;;;;;;;4.17;3.87;;;18.30;99.90;;;;;;10216949;28;20666;-84
2021/10/02 10:25:55;;;;;;;4.37;4.07;;;18.30;99.90;;;;;;10222262;28;20670;-84
2021/10/02 10:31:13;;;;;;;4.53;4.10;;;18.30;99.90;;;;;;10225903;28;20249;-84
2021/10/02 10:36:18;;;;;;;4.90;4.50;;;18.40;99.90;;;;;;10244945;29;20291;-85
2021/10/02 10:41:24;;;;;;;4.67;4.27;;;18.50;99.90;;;;;;10236274;29;20244;-84
2021/10/02 10:46:27;;;;;;;5.90;4.70;;;18.50;99.90;;;;;;10218843;29;20654;-84
2021/10/02 10:51:29;;;;;;;4.90;4.40;;;18.50;99.90;;;;;;10234931;28;20681;-84
2021/10/02 10:56:41;;;;;;;5.10;4.60;;;18.50;99.90;;;;;;10218139;28;20299;-84
2021/10/02 11:01:43;;;;;;;6.53;4.30;;;18.50;99.90;;;;;;10216618;28;20562;-84
2021/10/02 11:06:55;;;;;;;4.70;4.30;;;18.50;99.90;;;;;;10218384;29;20291;-84
2021/10/02 11:12:00;;;;;;;5.00;4.60;;;18.50;99.90;;;;;;10218620;29;20220;-85
2021/10/02 11:17:04;;;;;;;5.30;4.00;;;18.50;99.90;;;;;;10254469;29;20208;-84
2021/10/02 11:22:47;;;;;;;4.97;4.43;;;18.60;99.90;;;;;;10242849;28;20252;-84
2021/10/02 11:27:55;;;;;;;4.30;3.90;;;18.70;99.90;;;;;;10185914;29;20289;-84
2021/10/02 11:32:59;;;;;;;4.40;4.10;;;18.90;99.90;;;;;;10184092;29;20252;-84
2021/10/02 11:38:05;;;;;;;8.43;4.87;;;18.90;99.90;;;;;;10185141;29;20205;-84
2021/10/02 11:43:27;;;;;;;4.13;3.83;;;19.00;99.90;;;;;;10184283;29;20229;-85
2021/10/02 11:48:44;;;;;;;5.83;3.67;;;19.10;99.90;;;;;;10200031;28;20254;-85
2021/10/02 11:53:48;;;;;;;4.63;4.23;;;19.10;99.90;;;;;;10239347;28;20227;-84
2021/10/02 11:58:54;;;;;;;4.23;3.93;;;19.20;99.90;;;;;;10224453;28;20201;-85
2021/10/02 12:14:31;;;;;;;4.23;3.80;;;19.40;99.90;;;;;;10506554;23;20607;-85
2021/10/02 12:19:33;;;;;;;4.30;3.90;;;19.40;99.90;;;;;;10192852;29;20567;-84
2021/10/02 12:24:37;;;;;;;4.60;4.30;;;19.50;99.70;;;;;;10201237;29;20233;-85
2021/10/02 12:29:44;;;;;;;3.67;3.47;;;19.50;99.90;;;;;;10198826;29;20724;-84
2021/10/02 12:52:18;;;;;;;4.20;3.90;;;19.60;99.60;;;;;;10300036;23;20248;-84
2021/10/02 12:57:25;;;;;;;4.90;3.87;;;19.60;99.90;;;;;;10192174;29;20205;-84
2021/10/02 13:02:28;;;;;;;4.03;3.83;;;19.60;99.50;;;;;;10193284;29;20712;-84
2021/10/02 13:07:34;;;;;;;5.20;4.87;;;19.70;99.80;;;;;;10194671;29;20229;-85
2021/10/02 13:12:41;;;;;;;3.77;3.50;;;19.80;99.40;;;;;;10193339;29;20229;-84
2021/10/02 13:17:56;;;;;;;4.90;4.40;;;20.00;99.00;;;;;;10209871;29;20205;-84
2021/10/02 13:23:09;;;;;;;4.40;3.37;;;20.10;99.30;;;;;;10208410;29;20213;-84
2021/10/02 13:28:26;;;;;;;4.17;3.87;;;20.20;98.90;;;;;;10209020;29;20272;-84
2021/10/02 13:33:28;;;;;;;3.67;3.47;;;20.30;98.40;;;;;;10190124;29;20310;-84
2021/10/02 13:49:32;;;;;;;4.67;4.17;;;20.40;97.00;;;;;;2895505;26;20235;-85
2021/10/02 13:54:35;;;;;;;4.20;4.00;;;20.30;98.80;;;;;;10229072;29;20252;-85
2021/10/02 14:00:24;;;;;;;4.00;3.70;;;20.30;97.20;;;;;;10222624;29;20223;-85
2021/10/02 14:05:27;;;;;;;4.90;4.60;;;20.30;97.80;;;;;;10222173;28;20585;-85
2021/10/02 14:10:31;;;;;;;4.10;3.80;;;20.30;97.20;;;;;;10227363;28;20230;-82
2021/10/02 14:15:33;;;;;;;4.30;4.00;;;20.20;98.30;;;;;;10227035;29;20228;-82
2021/10/02 14:20:36;;;;;;;4.30;4.00;;;20.20;98.10;;;;;;10224360;28;20304;-85
2021/10/02 14:25:40;;;;;;;4.37;4.00;;;20.20;97.50;;;;;;10227154;28;20224;-83
2021/10/02 14:30:47;;;;;;;4.40;3.93;;;20.30;97.30;;;;;;10230029;28;20296;-85
2021/10/02 14:35:54;;;;;;;4.37;4.07;;;20.30;97.30;;;;;;10227706;28;20233;-85
2021/10/02 14:40:59;;;;;;;5.10;4.60;;;20.40;95.80;;;;;;10227372;28;20204;-84
2021/10/02 14:46:01;;;;;;;4.00;3.70;;;20.40;96.70;;;;;;10225254;28;20224;-82
2021/10/02 14:51:03;;;;;;;4.90;4.40;;;20.40;98.50;;;;;;10203108;29;20670;-83
2021/10/02 14:56:07;;;;;;;5.10;4.60;;;20.40;98.20;;;;;;10203741;29;20597;-83
2021/10/02 15:01:16;;;;;;;5.77;5.27;;;20.30;98.60;;;;;;10189363;29;20293;-83
2021/10/02 15:06:18;;;;;;;6.03;5.50;;;20.30;98.60;;;;;;10194447;29;20228;-83
2021/10/02 15:11:22;;;;;;;5.73;5.23;;;20.30;99.00;;;;;;10208876;29;20229;-83
2021/10/02 15:16:33;;;;;;;6.50;5.87;;;20.30;98.80;;;;;;10201236;29;20257;-85
2021/10/02 15:21:43;;;;;;;6.80;6.20;;;20.20;99.40;;;;;;10239655;29;20208;-82
2021/10/02 15:26:47;;;;;;;5.70;5.30;;;20.20;99.70;;;;;;10242225;29;20220;-83
2021/10/02 15:31:51;;;;;;;5.77;5.27;;;20.10;99.30;;;;;;10242041;28;20677;-83
2021/10/02 15:36:53;;;;;;;5.17;4.67;;;20.20;99.50;;;;;;10255027;29;20224;-85
2021/10/02 15:41:57;;;;;;;5.90;5.13;;;20.20;99.30;;;;;;10234675;28;20197;-82
2021/10/02 15:47:02;;;;;;;6.70;6.10;;;20.20;99.50;;;;;;10220047;28;20686;-85
2021/10/02 15:52:06;;;;;;;5.80;5.30;;;20.20;99.90;;;;;;10258509;28;20212;-82
2021/10/02 15:57:23;;;;;;;8.27;7.00;;;20.20;99.90;;;;;;10219866;29;20591;-82
2021/10/02 16:02:41;;;;;;;5.57;5.07;;;20.10;99.90;;;;;;10225083;29;20252;-85
2021/10/02 16:07:45;;;;;;;4.70;4.40;;;20.10;99.90;;;;;;10241108;29;20208;-85
2021/10/02 16:12:54;;;;;;;5.80;5.40;;;20.00;99.90;;;;;;10237620;29;20686;-85
2021/10/02 16:17:58;;;;;;;5.80;5.40;;;19.90;99.90;;;;;;10219957;28;20201;-85
2021/10/02 16:23:01;;;;;;;5.50;5.03;;;19.90;99.90;;;;;;10244956;28;20307;-85
2021/10/02 16:28:05;;;;;;;5.57;5.07;;;19.80;99.90;;;;;;10264550;28;20283;-85
2021/10/02 16:33:08;;;;;;;5.33;4.93;;;19.70;99.90;;;;;;10273431;28;20239;-85
2021/10/02 16:38:11;;;;;;;5.10;4.70;;;19.70;99.90;;;;;;10272909;28;20688;-85
2021/10/02 16:43:15;;;;;;;5.33;4.83;;;19.60;99.90;;;;;;10305564;28;20627;-85
2021/10/02 16:48:18;;;;;;;4.77;4.40;;;19.50;99.90;;;;;;10284897;28;20748;-85
2021/10/02 16:53:21;;;;;;;5.63;5.23;;;19.40;99.90;;;;;;10232053;28;20311;-85
2021/10/02 16:58:25;;;;;;;5.50;5.00;;;19.30;99.90;;;;;;10247503;28;20243;-85
2021/10/02 17:03:29;;;;;;;5.30;4.60;;;19.20;99.90;;;;;;10245795;29;20227;-84
2021/10/02 17:08:31;;;;;;;5.90;5.40;;;19.10;99.90;;;;;;10230202;28;20211;-84
2021/10/02 17:13:35;;;;;;;5.80;5.30;;;19.00;99.90;;;;;;10232992;29;20228;-84
2021/10/02 17:18:37;;;;;;;5.83;5.33;;;18.90;99.90;;;;;;10229504;29;20271;-84
2021/10/02 17:23:39;;;;;;;6.50;6.00;;;18.80;99.90;;;;;;10229022;29;20255;-84
2021/10/02 17:28:45;;;;;;;5.83;5.33;;;18.80;99.90;;;;;;10225620;28;20676;-84
2021/10/02 17:33:48;;;;;;;6.40;5.80;;;18.70;99.90;;;;;;10239821;29;20224;-84
2021/10/02 17:38:50;;;;;;;6.53;5.90;;;18.70;99.90;;;;;;10230895;29;20211;-84
2021/10/02 17:43:53;;;;;;;6.23;5.73;;;18.60;99.90;;;;;;10234230;28;20229;-85
2021/10/02 17:48:56;;;;;;;7.93;5.30;;;18.60;99.90;;;;;;10234178;28;20498;-85
2021/10/02 17:54:00;;;;;;;6.50;5.90;;;18.70;99.90;;;;;;10232245;29;20303;-84
2021/10/02 17:59:25;;;;;;;6.37;5.77;;;18.60;99.90;;;;;;10228763;28;20201;-84
2021/10/02 18:04:34;;;;;;;21.17;16.37;;;18.60;99.90;;;;;;10226226;28;20248;-84
2021/10/02 18:22:02;;;;;;;6.00;5.50;;;18.60;99.90;;;;;;9945908;29;20202;-84
2021/10/02 18:27:08;;;;;;;6.57;6.07;;;18.60;99.90;;;;;;10004942;29;20226;-84
2021/10/02 18:32:10;;;;;;;6.40;5.80;;;18.60;99.90;;;;;;10182337;29;20271;-84
2021/10/02 18:37:18;;;;;;;5.73;5.30;;;18.60;99.90;;;;;;10193278;29;20262;-84
2021/10/02 18:42:23;;;;;;;7.27;6.67;;;18.50;99.90;;;;;;10184562;29;20543;-84
2021/10/02 18:47:28;;;;;;;6.53;5.70;;;18.50;99.90;;;;;;10188029;29;20209;-84
2021/10/02 18:52:41;;;;;;;8.57;5.40;;;18.50;99.90;;;;;;10222046;28;20236;-84
2021/10/02 18:57:49;;;;;;;6.90;6.30;;;18.40;99.90;;;;;;10237978;28;20218;-84
2021/10/02 19:02:57;;;;;;;7.03;6.37;;;18.40;99.90;;;;;;10243989;28;20217;-84
2021/10/02 19:08:14;;;;;;;5.70;5.07;;;18.40;99.90;;;;;;10241997;29;20200;-84
2021/10/02 19:13:32;;;;;;;;;;;;;;;;;;;;;
2021/10/02 19:18:53;;;;;;;6.00;5.50;;;18.30;99.90;;;;;;10218994;28;20212;-84
2021/10/02 19:24:00;;;;;;;5.87;5.47;;;18.40;99.90;;;;;;10238950;29;20229;-84
2021/10/02 19:29:02;;;;;;;6.20;5.70;;;18.40;99.90;;;;;;10239739;28;20204;-84
2021/10/02 19:34:05;;;;;;;6.67;6.10;;;18.40;99.90;;;;;;10218429;28;20231;-83
2021/10/02 19:39:54;;;;;;;6.67;6.17;;;18.40;99.90;;;;;;10220630;28;20681;-84
2021/10/02 19:44:57;;;;;;;8.10;7.47;;;18.40;99.90;;;;;;10176759;23;20594;-84
2021/10/02 19:50:00;;;;;;;8.13;7.53;;;18.40;99.90;;;;;;10216951;29;20228;-84
2021/10/02 19:55:02;;;;;;;7.47;6.90;;;18.40;99.90;;;;;;10232541;29;20217;-84
2021/10/02 20:00:10;;;;;;;6.83;6.33;;;18.40;99.90;;;;;;10216434;28;20205;-84
2021/10/02 20:05:15;;;;;;;6.70;6.07;;;18.50;99.90;;;;;;10221115;29;20227;-84
2021/10/02 20:10:17;;;;;;;6.80;6.30;;;18.40;99.90;;;;;;10225269;29;20589;-84
2021/10/02 20:15:20;;;;;;;7.57;6.50;;;18.40;99.90;;;;;;10239879;29;20224;-84
2021/10/02 20:20:22;;;;;;;7.23;6.60;;;18.40;99.90;;;;;;10212342;29;20209;-84
2021/10/02 20:25:24;;;;;;;7.70;7.10;;;18.40;99.90;;;;;;10201120;29;20299;-84
2021/10/02 20:30:28;;;;;;;8.03;6.47;;;18.40;99.90;;;;;;10200546;29;20221;-84
2021/10/02 20:35:31;;;;;;;6.97;6.40;;;18.40;99.90;;;;;;10184909;29;20557;-84
2021/10/02 20:40:34;;;;;;;7.33;6.50;;;18.30;99.90;;;;;;10184814;29;20237;-84
2021/10/02 20:45:39;;;;;;;7.67;7.07;;;18.30;99.90;;;;;;10200659;29;20229;-84
2021/10/02 20:50:41;;;;;;;7.93;7.23;;;18.30;99.90;;;;;;10216199;29;20227;-84
2021/10/02 20:55:45;;;;;;;7.60;7.00;;;18.20;99.90;;;;;;10224086;29;20248;-84
2021/10/02 21:00:48;;;;;;;9.07;8.27;;;18.20;99.90;;;;;;10222376;29;20228;-84
2021/10/02 21:05:53;;;;;;;7.97;7.37;;;18.20;99.90;;;;;;10223253;28;20784;-84
2021/10/02 21:10:56;;;;;;;8.73;8.03;;;18.10;99.90;;;;;;10256313;28;20224;-84
2021/10/02 21:15:59;;;;;;;9.20;8.50;;;18.10;99.90;;;;;;10221016;28;20720;-84
2021/10/02 21:21:02;;;;;;;7.57;6.97;;;18.10;99.90;;;;;;10188623;29;20216;-84
2021/10/02 21:26:05;;;;;;;6.90;6.30;;;18.10;99.90;;;;;;10182465;29;20229;-84
2021/10/02 21:31:09;;;;;;;7.50;6.80;;;18.00;99.90;;;;;;10182470;29;20264;-84
2021/10/02 21:36:11;;;;;;;6.80;6.30;;;18.00;99.90;;;;;;10198425;29;20277;-84
2021/10/02 21:41:13;;;;;;;8.40;6.93;;;18.00;99.90;;;;;;10198577;29;20201;-83
2021/10/02 21:46:17;;;;;;;6.60;6.10;;;17.90;99.90;;;;;;10221590;28;20240;-84
2021/10/02 21:51:20;;;;;;;7.87;7.17;;;17.90;99.90;;;;;;10217031;28;20323;-84
2021/10/02 21:56:23;;;;;;;7.27;6.67;;;17.90;99.90;;;;;;10259024;28;20691;-84
2021/10/02 22:01:33;;;;;;;6.50;6.00;;;17.90;99.90;;;;;;10220424;29;20211;-84
2021/10/02 22:06:36;;;;;;;7.03;6.43;;;17.90;99.90;;;;;;10220997;28;20248;-84
2021/10/02 22:11:39;;;;;;;7.27;6.43;;;17.80;99.90;;;;;;10220766;28;20281;-84
2021/10/02 22:16:43;;;;;;;7.20;6.60;;;17.90;99.90;;;;;;10495253;23;21033;-84
2021/10/02 22:21:45;;;;;;;7.33;6.73;;;17.80;99.90;;;;;;10222025;29;20587;-84
2021/10/02 22:26:51;;;;;;;6.83;6.17;;;17.90;99.90;;;;;;10216275;28;20225;-84
2021/10/02 22:31:55;;;;;;;6.87;6.27;;;17.80;99.90;;;;;;10184954;29;20663;-84
2021/10/02 22:36:59;;;;;;;6.00;5.50;;;17.80;99.90;;;;;;10181033;29;20229;-84
2021/10/02 22:42:01;;;;;;;7.37;6.77;;;17.80;99.90;;;;;;10211827;29;20204;-84
2021/10/02 22:47:05;;;;;;;6.30;5.80;;;17.80;99.90;;;;;;10234033;29;20216;-84
2021/10/02 22:52:07;;;;;;;6.10;5.67;;;17.90;99.90;;;;;;10180846;29;20221;-85
2021/10/02 22:57:10;;;;;;;6.43;5.93;;;17.90;99.90;;;;;;10196084;29;20225;-84
2021/10/02 23:02:16;;;;;;;6.00;5.50;;;17.90;99.90;;;;;;10206012;29;21219;-84
2021/10/02 23:07:19;;;;;;;7.17;6.57;;;17.90;99.90;;;;;;10219386;29;20611;-84
2021/10/02 23:12:21;;;;;;;7.20;6.60;;;17.90;99.90;;;;;;10213892;29;20225;-84
2021/10/02 23:17:27;;;;;;;5.80;5.40;;;17.90;99.90;;;;;;10196352;29;20233;-84
2021/10/02 23:22:31;;;;;;;6.03;5.57;;;17.90;99.90;;;;;;10196689;29;20581;-84
2021/10/02 23:27:38;;;;;;;6.57;6.07;;;17.80;99.90;;;;;;10196399;29;20573;-84
2021/10/02 23:32:44;;;;;;;6.27;5.77;;;17.80;99.90;;;;;;10196900;29;20227;-84
2021/10/02 23:37:47;;;;;;;6.30;5.77;;;17.70;99.90;;;;;;10198146;28;20236;-84
2021/10/02 23:42:49;;;;;;;5.10;4.80;;;17.70;99.90;;;;;;10193655;29;20217;-84
2021/10/02 23:47:53;;;;;;;6.93;6.33;;;17.70;99.90;;;;;;10214498;29;20236;-84
2021/10/02 23:53:05;;;;;;;5.47;5.07;;;17.60;99.90;;;;;;10213681;29;20229;-84
2021/10/02 23:58:08;;;;;;;6.00;5.60;;;17.60;99.90;;;;;;10206739;29;20205;-84
